createdAt,value
2018-09-29T00:04:54.416Z,0.0
2018-09-29T00:25:43.966Z,0.0
2018-09-29T00:36:20.296Z,0.0
2018-09-29T00:46:34.881Z,0.0
2018-09-29T00:56:48.983Z,0.0
2018-09-29T01:07:55.802Z,0.0
2018-09-29T01:29:11.508Z,0.0
2018-09-29T01:39:33.850Z,0.0
2018-09-29T01:50:05.346Z,0.0
2018-09-29T02:01:29.640Z,0.0
2018-09-29T02:12:12.837Z,0.0
2018-09-29T02:22:42.414Z,0.0
2018-09-29T02:34:50.441Z,0.0
2018-09-29T02:47:45.209Z,0.0
2018-09-29T02:58:55.261Z,0.0
2018-09-29T04:10:19.856Z,0.0
2018-09-29T04:24:22.161Z,0.0
2018-09-29T04:50:44.432Z,0.0
2018-09-29T06:48:06.601Z,115.0
2018-09-29T07:00:57.622Z,135.0
2018-09-29T08:58:37.902Z,2125.0
2018-09-29T09:09:39.425Z,2220.0
2018-09-29T09:22:30.121Z,2275.0
2018-09-29T09:34:27.741Z,2140.0
2018-09-29T09:46:11.737Z,2675.0
2018-09-29T10:10:20.670Z,2720.0
2018-09-29T10:22:53.632Z,2625.0
2018-09-29T10:35:26.396Z,2665.0
2018-09-29T10:47:27.010Z,3085.0
2018-09-29T10:57:41.112Z,3030.0
2018-09-29T11:07:55.606Z,500.0
2018-09-29T11:20:17.848Z,1250.0
2018-09-29T12:00:05.106Z,585.0
2018-09-29T12:10:50.058Z,1250.0
2018-09-29T12:21:03.884Z,2925.0
2018-09-29T12:42:56.214Z,1915.0
2018-09-29T12:53:10.152Z,565.0
2018-09-29T13:03:24.947Z,615.0
2018-09-29T13:26:15.125Z,2570.0
2018-09-29T13:38:14.596Z,2165.0
2018-09-29T13:51:00.419Z,2170.0
2018-09-29T14:02:45.911Z,2130.0
2018-09-29T14:15:45.061Z,2055.0
2018-09-29T14:29:13.319Z,1695.0
2018-09-29T14:42:53.953Z,1645.0
2018-09-29T14:55:10.849Z,1585.0
2018-09-29T15:06:34.046Z,255.0
2018-09-29T15:20:23.263Z,215.0
2018-09-29T15:33:54.402Z,305.0
2018-09-29T15:44:59.955Z,155.0
2018-09-29T15:55:55.194Z,140.0
2018-09-29T16:07:46.366Z,115.0
2018-09-29T16:19:01.423Z,95.0
2018-09-29T16:31:36.169Z,70.0
2018-09-29T17:05:06.875Z,15.0
2018-09-29T17:17:16.641Z,5.0
2018-09-29T17:27:30.876Z,0.0
2018-09-29T17:37:45.530Z,0.0
2018-09-29T17:49:18.289Z,0.0
2018-09-29T18:24:11.848Z,0.0
2018-09-29T18:36:48.182Z,0.0
2018-09-29T18:48:25.274Z,0.0
2018-09-29T19:00:07.684Z,0.0
2018-09-29T19:27:31.508Z,0.0
2018-09-29T19:40:02.791Z,0.0
2018-09-29T19:51:29.283Z,0.0
2018-09-29T20:17:00.860Z,0.0
2018-09-29T20:44:12.990Z,0.0
